Time;durP1;ratioP1;P1;durP2;ratioP2;P2;SDS_P1;SDS_P2;PMS_P1;PMS_P2;Temp;Humidity;BMP_temperature;BMP_pressure;BME280_temperature;BME280_humidity;BME280_pressure;Samples;Min_cycle;Max_cycle;Signal;HPM_P1;HPM_P2
2021/04/25 00:02:09;;;;;;;28.15;12.60;;;;;;;;;;4948545;29;20073;-68
2021/04/25 00:04:37;;;;;;;20.80;11.57;;;;;;;;;;4939401;28;20511;-67
2021/04/25 00:07:06;;;;;;;25.95;12.70;;;;;;;;;;4933505;29;20044;-68
2021/04/25 00:09:33;;;;;;;20.17;11.52;;;;;;;;;;4945449;29;20079;-67
2021/04/25 00:12:01;;;;;;;24.13;12.63;;;;;;;;;;4948871;29;20047;-68
2021/04/25 00:14:29;;;;;;;26.27;11.70;;;;;;;;;;4943954;29;20083;-67
2021/04/25 00:16:57;;;;;;;22.33;10.80;;;;;;;;;;4949008;29;20043;-67
2021/04/25 00:19:25;;;;;;;19.98;11.27;;;;;;;;;;4948399;29;20121;-67
2021/04/25 00:21:52;;;;;;;20.15;10.43;;;;;;;;;;4948791;29;20047;-67
2021/04/25 00:24:21;;;;;;;20.88;10.55;;;;;;;;;;4946370;28;20090;-67
2021/04/25 00:26:48;;;;;;;23.40;10.75;;;;;;;;;;4945180;28;20098;-67
2021/04/25 00:29:15;;;;;;;20.90;10.73;;;;;;;;;;4937865;29;20055;-67
2021/04/25 00:31:43;;;;;;;19.70;11.30;;;;;;;;;;4933354;29;20078;-67
2021/04/25 00:34:10;;;;;;;22.33;9.93;;;;;;;;;;4948976;28;20050;-68
2021/04/25 00:36:37;;;;;;;19.95;10.27;;;;;;;;;;4945626;28;20130;-68
2021/04/25 00:39:05;;;;;;;20.08;10.50;;;;;;;;;;4958753;28;20804;-68
2021/04/25 00:41:33;;;;;;;19.20;10.23;;;;;;;;;;4943360;28;20129;-68
2021/04/25 00:44:01;;;;;;;19.90;11.55;;;;;;;;;;4946930;28;20309;-68
2021/04/25 00:46:28;;;;;;;25.23;11.07;;;;;;;;;;4946372;28;20051;-67
2021/04/25 00:48:56;;;;;;;20.80;10.00;;;;;;;;;;4951594;29;20047;-68
2021/04/25 00:51:23;;;;;;;20.52;9.38;;;;;;;;;;4951458;29;20044;-70
2021/04/25 00:53:51;;;;;;;19.10;10.35;;;;;;;;;;4944076;29;20162;-69
2021/04/25 00:56:22;;;;;;;19.38;9.35;;;;;;;;;;4955416;29;20062;-68
2021/04/25 00:58:51;;;;;;;22.15;10.48;;;;;;;;;;4948122;29;20599;-68
2021/04/25 01:01:18;;;;;;;23.77;10.10;;;;;;;;;;4945385;28;20570;-68
2021/04/25 01:03:46;;;;;;;19.55;9.68;;;;;;;;;;4950733;29;20054;-69
2021/04/25 01:06:14;;;;;;;18.95;9.88;;;;;;;;;;4946793;29;20051;-68
2021/04/25 01:08:42;;;;;;;18.60;9.68;;;;;;;;;;4939638;28;20464;-68
2021/04/25 01:11:09;;;;;;;19.00;10.18;;;;;;;;;;4945553;28;20074;-68
2021/04/25 01:13:37;;;;;;;22.05;11.18;;;;;;;;;;4951508;29;20066;-67
2021/04/25 01:16:05;;;;;;;17.85;9.15;;;;;;;;;;4947485;29;20134;-69
2021/04/25 01:18:32;;;;;;;23.02;10.07;;;;;;;;;;4953053;29;20093;-68
2021/04/25 01:21:01;;;;;;;20.45;10.13;;;;;;;;;;4948316;29;20470;-68
2021/04/25 01:23:28;;;;;;;18.13;9.10;;;;;;;;;;4943962;29;20044;-68
2021/04/25 01:25:56;;;;;;;16.95;10.32;;;;;;;;;;4949337;29;20074;-67
2021/04/25 01:28:23;;;;;;;20.10;9.25;;;;;;;;;;4946872;28;20142;-68
2021/04/25 01:30:51;;;;;;;17.17;8.40;;;;;;;;;;4950986;28;20360;-68
2021/04/25 01:33:18;;;;;;;18.80;8.52;;;;;;;;;;4948633;29;20142;-68
2021/04/25 01:35:45;;;;;;;16.80;8.63;;;;;;;;;;4949914;29;20590;-68
2021/04/25 01:38:14;;;;;;;19.15;8.93;;;;;;;;;;4945279;28;20055;-68
2021/04/25 01:40:42;;;;;;;19.58;8.85;;;;;;;;;;4937950;29;20412;-68
2021/04/25 01:43:11;;;;;;;16.38;8.32;;;;;;;;;;4947555;29;20448;-67
2021/04/25 01:45:38;;;;;;;18.95;8.77;;;;;;;;;;4951815;28;20094;-67
2021/04/25 01:48:08;;;;;;;19.92;9.27;;;;;;;;;;4951837;28;20460;-68
2021/04/25 01:50:37;;;;;;;17.92;9.00;;;;;;;;;;4949054;29;20150;-69
2021/04/25 01:53:05;;;;;;;22.20;9.80;;;;;;;;;;4953639;29;20138;-68
2021/04/25 01:55:34;;;;;;;17.13;9.00;;;;;;;;;;4947210;29;20043;-68
2021/04/25 01:58:01;;;;;;;20.58;8.93;;;;;;;;;;4948520;28;20098;-68
2021/04/25 02:00:29;;;;;;;17.10;8.30;;;;;;;;;;4947757;28;20046;-69
2021/04/25 02:02:57;;;;;;;17.17;9.07;;;;;;;;;;4954051;28;20578;-68
2021/04/25 02:05:25;;;;;;;15.60;8.13;;;;;;;;;;4950797;28;20057;-68
2021/04/25 02:07:52;;;;;;;17.00;8.35;;;;;;;;;;4944698;29;20403;-68
2021/04/25 02:10:21;;;;;;;16.08;8.57;;;;;;;;;;4951938;29;20102;-68
2021/04/25 02:12:49;;;;;;;13.95;7.35;;;;;;;;;;4942972;29;20136;-68
2021/04/25 02:15:17;;;;;;;17.98;8.23;;;;;;;;;;4953014;28;20128;-68
2021/04/25 02:17:44;;;;;;;20.77;9.35;;;;;;;;;;4952102;29;20071;-68
2021/04/25 02:20:13;;;;;;;18.10;9.05;;;;;;;;;;4944439;28;20579;-68
2021/04/25 02:22:40;;;;;;;18.95;9.02;;;;;;;;;;4954121;29;20438;-68
2021/04/25 02:25:08;;;;;;;15.07;7.70;;;;;;;;;;4945100;29;20051;-67
2021/04/25 02:27:36;;;;;;;18.27;8.38;;;;;;;;;;4950044;29;20074;-68
2021/04/25 02:30:05;;;;;;;15.77;8.77;;;;;;;;;;4951445;29;20083;-68
2021/04/25 02:32:32;;;;;;;17.38;8.30;;;;;;;;;;4936304;29;20079;-68
2021/04/25 02:35:00;;;;;;;13.60;7.40;;;;;;;;;;4934951;29;20044;-68
2021/04/25 02:37:27;;;;;;;20.40;9.02;;;;;;;;;;4950613;28;20079;-68
2021/04/25 02:39:54;;;;;;;19.00;9.60;;;;;;;;;;4957573;28;20078;-68
2021/04/25 02:42:22;;;;;;;14.55;7.65;;;;;;;;;;4948434;28;20146;-70
2021/04/25 02:44:49;;;;;;;16.85;7.97;;;;;;;;;;4948452;28;20151;-68
2021/04/25 02:47:17;;;;;;;15.80;7.70;;;;;;;;;;4952304;28;20105;-68
2021/04/25 02:49:45;;;;;;;14.63;8.27;;;;;;;;;;4947598;29;20043;-68
2021/04/25 02:52:12;;;;;;;19.70;8.75;;;;;;;;;;4945998;29;20522;-68
2021/04/25 02:54:39;;;;;;;17.73;7.97;;;;;;;;;;4944060;29;20107;-67
2021/04/25 02:57:07;;;;;;;19.02;8.43;;;;;;;;;;4953428;29;20055;-67
2021/04/25 02:59:34;;;;;;;14.77;7.95;;;;;;;;;;4953260;28;20126;-67
2021/04/25 03:02:02;;;;;;;11.65;6.85;;;;;;;;;;4947690;29;20550;-68
2021/04/25 03:04:30;;;;;;;16.88;8.23;;;;;;;;;;4947028;28;20138;-67
2021/04/25 03:06:57;;;;;;;22.38;8.77;;;;;;;;;;4951767;29;20056;-67
2021/04/25 03:09:24;;;;;;;17.95;8.27;;;;;;;;;;4944890;28;20122;-67
2021/04/25 03:11:52;;;;;;;16.50;7.72;;;;;;;;;;4935090;29;20107;-67
2021/04/25 03:14:19;;;;;;;14.90;7.45;;;;;;;;;;4941496;29;20065;-68
2021/04/25 03:16:46;;;;;;;18.65;7.50;;;;;;;;;;4952009;28;20039;-67
2021/04/25 03:19:14;;;;;;;19.83;7.65;;;;;;;;;;4951041;28;20503;-67
2021/04/25 03:21:43;;;;;;;15.65;7.32;;;;;;;;;;4952699;29;20082;-67
2021/04/25 03:24:10;;;;;;;16.80;7.90;;;;;;;;;;4950935;29;20108;-67
2021/04/25 03:26:38;;;;;;;19.00;8.27;;;;;;;;;;4952530;28;20130;-67
2021/04/25 03:29:07;;;;;;;17.00;8.18;;;;;;;;;;4952598;28;20545;-67
2021/04/25 03:31:34;;;;;;;14.02;6.90;;;;;;;;;;4948317;28;20090;-68
2021/04/25 03:34:01;;;;;;;16.15;8.27;;;;;;;;;;4936458;28;20146;-67
2021/04/25 03:36:29;;;;;;;18.13;7.78;;;;;;;;;;4952237;28;20487;-67
2021/04/25 03:38:57;;;;;;;14.55;7.22;;;;;;;;;;4952634;28;20166;-67
2021/04/25 03:41:26;;;;;;;17.50;7.97;;;;;;;;;;4936472;29;20473;-67
2021/04/25 03:43:53;;;;;;;13.48;7.32;;;;;;;;;;4941363;29;20133;-67
2021/04/25 03:46:21;;;;;;;18.40;8.35;;;;;;;;;;4951744;28;20169;-69
2021/04/25 03:48:48;;;;;;;12.90;7.00;;;;;;;;;;4948521;28;20466;-67
2021/04/25 03:51:16;;;;;;;14.80;7.55;;;;;;;;;;4962560;28;20170;-68
2021/04/25 03:53:43;;;;;;;16.33;7.63;;;;;;;;;;4950554;29;20078;-67
2021/04/25 03:56:11;;;;;;;12.95;7.32;;;;;;;;;;4954777;28;20047;-67
2021/04/25 03:58:39;;;;;;;13.93;7.72;;;;;;;;;;4946170;29;20115;-67
2021/04/25 04:01:06;;;;;;;18.42;8.38;;;;;;;;;;4943026;29;20416;-67
2021/04/25 04:03:34;;;;;;;16.67;8.50;;;;;;;;;;4944198;29;20115;-67
2021/04/25 04:06:01;;;;;;;15.52;7.38;;;;;;;;;;4938717;28;20131;-67
2021/04/25 04:08:29;;;;;;;18.92;7.78;;;;;;;;;;4937128;29;20067;-68
2021/04/25 04:10:56;;;;;;;15.13;7.57;;;;;;;;;;4950373;29;20051;-67
2021/04/25 04:13:24;;;;;;;18.83;7.38;;;;;;;;;;4935617;29;20134;-67
2021/04/25 04:15:52;;;;;;;16.98;8.18;;;;;;;;;;4943757;29;20531;-67
2021/04/25 04:18:19;;;;;;;14.38;7.85;;;;;;;;;;4940748;28;20151;-67
2021/04/25 04:20:46;;;;;;;16.15;7.97;;;;;;;;;;4935823;29;20083;-67
2021/04/25 04:23:14;;;;;;;16.13;7.30;;;;;;;;;;4938902;29;20166;-67
2021/04/25 04:25:41;;;;;;;16.58;7.45;;;;;;;;;;4952832;28;20154;-67
2021/04/25 04:28:09;;;;;;;17.02;7.93;;;;;;;;;;4955210;29;20062;-67
2021/04/25 04:30:37;;;;;;;20.45;8.63;;;;;;;;;;4952542;28;20501;-67
2021/04/25 04:33:05;;;;;;;15.48;8.43;;;;;;;;;;4938578;29;20059;-68
2021/04/25 04:35:33;;;;;;;19.50;8.55;;;;;;;;;;4944471;29;20489;-68
2021/04/25 04:38:00;;;;;;;15.30;7.70;;;;;;;;;;4951582;28;20122;-68
2021/04/25 04:40:27;;;;;;;19.30;8.60;;;;;;;;;;4947058;28;20159;-68
2021/04/25 04:42:56;;;;;;;18.38;8.75;;;;;;;;;;4947150;29;20039;-68
2021/04/25 04:45:23;;;;;;;18.40;9.25;;;;;;;;;;4947141;29;20083;-67
2021/04/25 04:47:51;;;;;;;24.30;9.90;;;;;;;;;;4955077;28;20590;-68
2021/04/25 04:50:20;;;;;;;18.88;10.45;;;;;;;;;;4951626;29;20079;-68
2021/04/25 04:52:47;;;;;;;20.52;10.00;;;;;;;;;;4951053;28;20122;-68
2021/04/25 04:55:15;;;;;;;16.58;9.98;;;;;;;;;;4944314;29;20052;-68
2021/04/25 04:57:43;;;;;;;20.15;10.05;;;;;;;;;;4945597;28;20138;-68
2021/04/25 05:00:11;;;;;;;15.75;9.73;;;;;;;;;;4954351;29;20083;-67
2021/04/25 05:02:39;;;;;;;19.23;9.60;;;;;;;;;;4954441;29;20074;-68
2021/04/25 05:05:08;;;;;;;19.38;9.50;;;;;;;;;;4937544;29;20068;-68
2021/04/25 05:07:36;;;;;;;21.73;10.68;;;;;;;;;;4954401;28;20138;-68
2021/04/25 05:10:04;;;;;;;19.95;10.07;;;;;;;;;;4955984;29;20137;-68
2021/04/25 05:12:31;;;;;;;20.50;11.07;;;;;;;;;;4958039;28;20491;-68
2021/04/25 05:14:59;;;;;;;16.77;9.93;;;;;;;;;;4948113;29;20046;-68
2021/04/25 05:17:26;;;;;;;22.65;10.48;;;;;;;;;;4948120;29;20124;-68
2021/04/25 05:19:54;;;;;;;22.88;10.98;;;;;;;;;;4949154;29;20059;-69
2021/04/25 05:22:22;;;;;;;21.35;11.32;;;;;;;;;;4946230;29;20061;-70
2021/04/25 05:24:50;;;;;;;23.50;12.48;;;;;;;;;;4945101;29;20048;-68
2021/04/25 05:27:17;;;;;;;25.60;12.07;;;;;;;;;;4942086;28;20057;-67
2021/04/25 05:29:45;;;;;;;20.40;11.82;;;;;;;;;;4949575;29;20102;-69
2021/04/25 05:32:12;;;;;;;21.55;11.48;;;;;;;;;;4948424;28;20082;-68
2021/04/25 05:34:40;;;;;;;26.38;12.35;;;;;;;;;;4944514;29;20502;-68
2021/04/25 05:37:07;;;;;;;26.60;14.52;;;;;;;;;;4947642;28;20162;-68
2021/04/25 05:39:35;;;;;;;20.80;12.38;;;;;;;;;;4949112;29;20483;-68
2021/04/25 05:42:03;;;;;;;27.65;13.02;;;;;;;;;;4949115;29;20083;-69
2021/04/25 05:44:30;;;;;;;30.10;15.30;;;;;;;;;;4941430;29;20126;-68
2021/04/25 05:46:58;;;;;;;24.85;13.40;;;;;;;;;;4941334;29;20586;-68
2021/04/25 05:49:25;;;;;;;21.77;13.25;;;;;;;;;;4941159;29;20055;-69
2021/04/25 05:51:53;;;;;;;25.90;15.10;;;;;;;;;;4953852;28;20079;-68
2021/04/25 05:54:20;;;;;;;31.38;15.57;;;;;;;;;;4947443;28;20503;-68
2021/04/25 05:56:48;;;;;;;30.67;14.30;;;;;;;;;;4950992;28;20051;-68
2021/04/25 05:59:15;;;;;;;24.50;13.77;;;;;;;;;;4947852;28;20087;-68
2021/04/25 06:01:43;;;;;;;26.83;13.77;;;;;;;;;;4942940;28;20132;-68
2021/04/25 06:04:11;;;;;;;26.10;15.07;;;;;;;;;;4938859;29;20141;-68
2021/04/25 06:06:38;;;;;;;27.15;13.88;;;;;;;;;;4950719;28;20136;-68
2021/04/25 06:09:06;;;;;;;24.58;14.00;;;;;;;;;;4951281;28;20134;-68
2021/04/25 06:11:34;;;;;;;25.42;14.75;;;;;;;;;;4941931;29;20079;-68
2021/04/25 06:14:04;;;;;;;27.05;14.00;;;;;;;;;;4936413;28;20043;-68
2021/04/25 06:16:32;;;;;;;27.90;14.68;;;;;;;;;;4931850;28;20079;-68
2021/04/25 06:18:59;;;;;;;27.25;14.25;;;;;;;;;;4941879;29;20404;-67
2021/04/25 06:21:27;;;;;;;32.78;15.93;;;;;;;;;;4949910;29;20066;-67
2021/04/25 06:23:55;;;;;;;27.38;15.32;;;;;;;;;;4941431;29;20584;-68
2021/04/25 06:26:23;;;;;;;32.15;16.90;;;;;;;;;;4947221;29;20114;-69
2021/04/25 06:28:51;;;;;;;27.33;16.02;;;;;;;;;;4943333;28;20099;-68
2021/04/25 06:31:19;;;;;;;25.50;15.13;;;;;;;;;;4941334;29;20062;-68
2021/04/25 06:33:47;;;;;;;29.02;15.68;;;;;;;;;;4950806;29;20166;-67
2021/04/25 06:36:15;;;;;;;30.63;15.32;;;;;;;;;;4954002;28;20060;-68
2021/04/25 06:38:42;;;;;;;26.85;15.35;;;;;;;;;;4968531;28;20150;-67
2021/04/25 06:41:10;;;;;;;29.77;15.50;;;;;;;;;;4979849;28;20055;-69
2021/04/25 06:43:37;;;;;;;30.10;15.50;;;;;;;;;;4972400;28;20093;-67
2021/04/25 06:46:04;;;;;;;25.60;15.45;;;;;;;;;;4973801;28;20137;-67
2021/04/25 06:48:33;;;;;;;27.80;15.25;;;;;;;;;;4961897;28;20057;-67
2021/04/25 06:51:04;;;;;;;25.08;14.63;;;;;;;;;;4953054;28;20079;-68
2021/04/25 06:53:32;;;;;;;33.30;15.07;;;;;;;;;;4953049;28;20055;-67
2021/04/25 06:55:59;;;;;;;26.63;14.43;;;;;;;;;;4953433;28;20114;-67
2021/04/25 06:58:26;;;;;;;26.67;15.27;;;;;;;;;;4951856;29;20530;-68
2021/04/25 07:00:53;;;;;;;31.60;15.35;;;;;;;;;;4952716;29;20051;-67
2021/04/25 07:03:21;;;;;;;24.98;14.48;;;;;;;;;;4951384;29;21492;-67
2021/04/25 07:05:55;;;;;;;28.48;15.48;;;;;;;;;;5108522;27;20355;-67
2021/04/25 07:08:24;;;;;;;24.73;14.90;;;;;;;;;;5066410;27;20500;-69
2021/04/25 07:10:52;;;;;;;25.83;14.75;;;;;;;;;;5047206;28;20486;-65
2021/04/25 07:13:19;;;;;;;25.83;14.70;;;;;;;;;;5047752;28;20350;-66
2021/04/25 07:15:47;;;;;;;31.45;14.43;;;;;;;;;;5045746;28;20049;-66
2021/04/25 07:18:14;;;;;;;29.80;15.20;;;;;;;;;;5061934;28;20055;-66
2021/04/25 07:20:42;;;;;;;28.17;15.07;;;;;;;;;;5066672;28;20041;-66
2021/04/25 07:23:10;;;;;;;25.15;14.93;;;;;;;;;;5062602;28;20408;-66
2021/04/25 07:25:38;;;;;;;24.65;13.90;;;;;;;;;;5061312;28;20064;-67
2021/04/25 07:28:06;;;;;;;23.52;15.07;;;;;;;;;;5063866;28;20052;-66
2021/04/25 07:30:33;;;;;;;25.88;13.82;;;;;;;;;;5066635;28;20488;-67
2021/04/25 07:33:01;;;;;;;22.48;14.35;;;;;;;;;;5063852;28;20629;-67
2021/04/25 07:35:29;;;;;;;22.65;14.00;;;;;;;;;;5064836;28;20147;-66
2021/04/25 07:37:56;;;;;;;30.08;15.10;;;;;;;;;;5063641;28;20048;-66
2021/04/25 07:40:24;;;;;;;25.40;14.23;;;;;;;;;;5066732;28;20528;-66
2021/04/25 07:42:52;;;;;;;24.13;14.70;;;;;;;;;;5068326;28;20118;-67
2021/04/25 07:45:20;;;;;;;20.25;13.82;;;;;;;;;;5067671;28;20080;-67
2021/04/25 07:47:47;;;;;;;21.80;13.15;;;;;;;;;;5067039;27;20052;-67
2021/04/25 07:50:15;;;;;;;22.48;14.68;;;;;;;;;;5067251;28;20044;-69
2021/04/25 07:52:43;;;;;;;23.35;14.43;;;;;;;;;;5063640;28;20041;-66
2021/04/25 07:55:11;;;;;;;25.42;14.55;;;;;;;;;;5067184;28;20060;-66
2021/04/25 07:57:39;;;;;;;24.23;13.25;;;;;;;;;;5066105;28;20454;-66
2021/04/25 08:00:08;;;;;;;23.90;14.07;;;;;;;;;;5066223;28;20103;-67
2021/04/25 08:02:36;;;;;;;19.73;12.85;;;;;;;;;;5065954;28;20054;-66
2021/04/25 08:05:04;;;;;;;26.17;13.80;;;;;;;;;;5066757;28;20052;-68
2021/04/25 08:07:32;;;;;;;21.27;13.15;;;;;;;;;;5065315;27;20045;-67
2021/04/25 08:09:59;;;;;;;23.80;12.90;;;;;;;;;;5061020;28;20106;-67
2021/04/25 08:12:27;;;;;;;22.10;12.85;;;;;;;;;;5067253;28;20119;-67
2021/04/25 08:14:56;;;;;;;19.80;12.95;;;;;;;;;;5063783;28;20045;-68
2021/04/25 08:17:25;;;;;;;21.90;13.48;;;;;;;;;;5033242;28;20552;-68
2021/04/25 08:19:53;;;;;;;27.55;13.82;;;;;;;;;;5048598;28;20056;-66
2021/04/25 08:22:20;;;;;;;23.42;13.55;;;;;;;;;;5053613;28;20481;-66
2021/04/25 08:24:47;;;;;;;24.40;13.23;;;;;;;;;;5050011;28;20495;-66
2021/04/25 08:27:15;;;;;;;21.40;12.52;;;;;;;;;;5061471;27;20435;-66
2021/04/25 08:29:42;;;;;;;23.55;13.10;;;;;;;;;;5067299;28;20057;-66
2021/04/25 08:32:10;;;;;;;19.27;12.15;;;;;;;;;;5052570;28;20057;-66
2021/04/25 08:34:38;;;;;;;34.80;13.57;;;;;;;;;;5053535;28;20052;-66
2021/04/25 08:37:05;;;;;;;23.90;12.55;;;;;;;;;;5043165;28;20093;-66
2021/04/25 08:39:32;;;;;;;25.13;13.43;;;;;;;;;;5033378;28;20050;-67
2021/04/25 08:42:00;;;;;;;27.65;13.50;;;;;;;;;;5032644;28;20049;-69
2021/04/25 08:44:27;;;;;;;23.20;13.00;;;;;;;;;;5033035;28;20235;-66
2021/04/25 08:46:56;;;;;;;19.50;12.93;;;;;;;;;;5036017;28;20130;-66
2021/04/25 08:49:26;;;;;;;25.02;13.20;;;;;;;;;;5053125;28;20088;-66
2021/04/25 08:51:54;;;;;;;29.13;13.10;;;;;;;;;;5052274;28;20412;-67
2021/04/25 08:54:22;;;;;;;20.60;13.57;;;;;;;;;;5053337;28;20049;-68
2021/04/25 08:56:50;;;;;;;24.38;14.18;;;;;;;;;;5048890;28;20133;-66
2021/04/25 08:59:18;;;;;;;21.75;13.40;;;;;;;;;;5051444;28;20055;-67
2021/04/25 09:01:46;;;;;;;24.25;13.90;;;;;;;;;;5050977;28;20063;-67
2021/04/25 09:04:14;;;;;;;24.70;13.88;;;;;;;;;;5052265;28;20060;-66
2021/04/25 09:07:01;;;;;;;19.88;12.60;;;;;;;;;;5050870;28;20049;-67
2021/04/25 09:09:42;;;;;;;23.33;13.10;;;;;;;;;;5045462;28;20114;-67
2021/04/25 09:12:10;;;;;;;22.15;13.25;;;;;;;;;;5050247;28;20056;-66
2021/04/25 09:14:39;;;;;;;19.02;11.27;;;;;;;;;;5051469;28;20060;-68
2021/04/25 09:17:07;;;;;;;20.65;12.00;;;;;;;;;;5051235;28;20040;-69
2021/04/25 09:19:51;;;;;;;24.23;13.02;;;;;;;;;;5053172;28;20063;-71
2021/04/25 09:22:19;;;;;;;17.65;11.48;;;;;;;;;;5046986;28;20126;-66
2021/04/25 09:24:47;;;;;;;22.00;12.70;;;;;;;;;;5051417;28;20073;-67
2021/04/25 09:27:25;;;;;;;20.80;11.65;;;;;;;;;;5045522;28;20044;-67
2021/04/25 09:29:53;;;;;;;21.33;11.75;;;;;;;;;;5050933;28;20612;-65
2021/04/25 09:32:21;;;;;;;20.52;12.10;;;;;;;;;;5050123;28;20049;-65
2021/04/25 09:34:49;;;;;;;24.35;13.02;;;;;;;;;;5051510;28;20114;-66
2021/04/25 09:37:17;;;;;;;22.80;11.43;;;;;;;;;;5049229;28;20044;-66
2021/04/25 09:40:02;;;;;;;24.25;12.52;;;;;;;;;;5050724;28;20088;-66
2021/04/25 09:42:31;;;;;;;22.88;12.00;;;;;;;;;;5058953;28;20049;-66
2021/04/25 09:44:58;;;;;;;23.00;12.02;;;;;;;;;;5050671;28;20495;-67
2021/04/25 09:47:33;;;;;;;18.08;11.48;;;;;;;;;;5049790;28;20075;-66
2021/04/25 09:50:01;;;;;;;18.13;11.68;;;;;;;;;;5045910;28;20049;-67
2021/04/25 09:52:37;;;;;;;21.15;12.05;;;;;;;;;;5049357;28;20126;-68
2021/04/25 09:55:19;;;;;;;19.15;11.60;;;;;;;;;;5053138;28;20056;-68
2021/04/25 09:57:47;;;;;;;17.85;11.60;;;;;;;;;;5048197;28;20140;-66
2021/04/25 10:00:15;;;;;;;21.05;11.38;;;;;;;;;;5051511;28;20049;-66
2021/04/25 10:02:56;;;;;;;23.92;11.68;;;;;;;;;;5049578;28;20083;-65
2021/04/25 10:05:29;;;;;;;22.00;10.75;;;;;;;;;;437643;28;10022841;-67
2021/04/25 10:07:57;;;;;;;19.02;11.85;;;;;;;;;;5036058;28;20347;-65
2021/04/25 10:10:25;;;;;;;18.15;10.35;;;;;;;;;;5051870;28;20045;-67
2021/04/25 10:12:52;;;;;;;18.00;9.05;;;;;;;;;;5049629;28;20041;-66
2021/04/25 10:15:21;;;;;;;15.98;10.43;;;;;;;;;;5051225;28;20515;-67
2021/04/25 10:17:50;;;;;;;21.35;10.10;;;;;;;;;;5053236;28;20057;-65
2021/04/25 10:20:18;;;;;;;16.08;8.95;;;;;;;;;;5053109;28;20047;-66
2021/04/25 10:22:46;;;;;;;21.42;10.32;;;;;;;;;;5050961;28;20546;-66
2021/04/25 10:25:15;;;;;;;19.77;9.88;;;;;;;;;;5053952;28;20098;-67
2021/04/25 10:27:46;;;;;;;16.58;8.63;;;;;;;;;;5041727;28;20053;-66
2021/04/25 10:30:14;;;;;;;15.15;9.40;;;;;;;;;;5044552;28;20073;-67
2021/04/25 10:32:43;;;;;;;17.00;8.52;;;;;;;;;;5036154;28;20542;-67
2021/04/25 10:35:15;;;;;;;15.73;8.77;;;;;;;;;;5044792;28;20127;-67
2021/04/25 10:37:42;;;;;;;16.83;8.80;;;;;;;;;;5040238;28;20049;-66
2021/04/25 10:40:26;;;;;;;19.73;10.70;;;;;;;;;;5050540;28;20131;-67
2021/04/25 10:42:56;;;;;;;15.63;9.35;;;;;;;;;;5039114;28;20152;-67
2021/04/25 10:45:28;;;;;;;21.17;10.00;;;;;;;;;;5048288;28;20076;-67
2021/04/25 10:48:13;;;;;;;15.75;8.75;;;;;;;;;;5051069;28;20044;-67
2021/04/25 10:51:05;;;;;;;18.87;9.20;;;;;;;;;;5049850;28;20065;-68
2021/04/25 10:53:34;;;;;;;17.67;8.93;;;;;;;;;;5048230;28;20299;-67
2021/04/25 10:56:32;;;;;;;14.70;8.98;;;;;;;;;;5051732;28;20140;-68
2021/04/25 10:59:32;;;;;;;16.92;9.60;;;;;;;;;;5034753;28;20104;-67
2021/04/25 11:02:03;;;;;;;17.00;9.90;;;;;;;;;;5034337;28;20394;-67
2021/04/25 11:04:49;;;;;;;17.73;9.82;;;;;;;;;;5045789;28;20049;-70
2021/04/25 11:07:35;;;;;;;15.98;8.57;;;;;;;;;;5048068;28;20056;-67
2021/04/25 11:10:04;;;;;;;16.02;10.00;;;;;;;;;;5041536;28;20053;-70
2021/04/25 11:12:39;;;;;;;22.88;9.23;;;;;;;;;;5038986;28;20065;-68
2021/04/25 11:15:06;;;;;;;;;;;;;;;;;;5044326;28;20045;-71
2021/04/25 11:17:34;;;;;;;18.00;9.73;;;;;;;;;;5047269;28;19924;-72
2021/04/25 11:20:17;;;;;;;17.90;9.10;;;;;;;;;;5050803;28;20053;-71
2021/04/25 11:22:46;;;;;;;14.88;9.10;;;;;;;;;;5049826;28;20041;-67
2021/04/25 11:25:32;;;;;;;20.98;9.70;;;;;;;;;;5049579;28;20570;-67
2021/04/25 11:28:00;;;;;;;12.82;7.85;;;;;;;;;;5050663;28;20060;-68
2021/04/25 11:30:37;;;;;;;19.42;8.85;;;;;;;;;;5044980;28;20087;-67
2021/04/25 11:33:23;;;;;;;14.65;7.93;;;;;;;;;;5049894;28;20483;-67
2021/04/25 11:35:51;;;;;;;12.45;8.30;;;;;;;;;;5046049;28;20230;-67
2021/04/25 11:38:19;;;;;;;15.32;8.40;;;;;;;;;;5043184;28;20515;-67
2021/04/25 11:40:47;;;;;;;18.20;9.57;;;;;;;;;;5038935;28;20409;-67
2021/04/25 11:43:15;;;;;;;17.33;8.50;;;;;;;;;;5030658;28;20053;-70
2021/04/25 11:45:44;;;;;;;14.60;8.40;;;;;;;;;;5047396;28;20099;-67
2021/04/25 11:48:11;;;;;;;21.42;8.95;;;;;;;;;;5038873;28;20484;-72
2021/04/25 11:50:40;;;;;;;13.18;8.30;;;;;;;;;;5048306;28;20132;-68
2021/04/25 11:53:09;;;;;;;16.20;9.57;;;;;;;;;;5048941;28;20045;-68
2021/04/25 11:55:38;;;;;;;13.80;8.18;;;;;;;;;;5052991;28;20057;-68
2021/04/25 11:58:05;;;;;;;13.20;9.05;;;;;;;;;;5052601;28;20618;-71
2021/04/25 12:00:35;;;;;;;13.85;8.52;;;;;;;;;;5047543;28;20044;-70
2021/04/25 12:03:03;;;;;;;20.02;8.30;;;;;;;;;;5048176;28;20076;-71
2021/04/25 12:05:31;;;;;;;17.48;8.55;;;;;;;;;;5042596;28;20075;-67
2021/04/25 12:07:59;;;;;;;12.73;7.57;;;;;;;;;;5047901;28;20048;-68
2021/04/25 12:10:31;;;;;;;15.63;8.02;;;;;;;;;;5041840;28;20053;-69
2021/04/25 12:13:07;;;;;;;18.02;9.02;;;;;;;;;;5040633;28;20139;-68
2021/04/25 12:15:39;;;;;;;17.05;7.68;;;;;;;;;;5042323;28;20072;-69
2021/04/25 12:18:07;;;;;;;14.15;7.30;;;;;;;;;;5052951;28;20048;-70
2021/04/25 12:20:39;;;;;;;10.23;6.55;;;;;;;;;;5053481;28;20041;-68
2021/04/25 12:23:07;;;;;;;13.63;6.80;;;;;;;;;;5051925;28;20055;-67
2021/04/25 12:25:35;;;;;;;12.25;6.82;;;;;;;;;;5053861;28;20041;-68
2021/04/25 12:28:03;;;;;;;11.77;6.60;;;;;;;;;;5052203;28;20450;-70
2021/04/25 12:30:31;;;;;;;13.88;7.95;;;;;;;;;;5046975;28;20385;-68
2021/04/25 12:33:03;;;;;;;10.52;6.18;;;;;;;;;;5041134;28;20057;-68
2021/04/25 12:35:33;;;;;;;14.20;7.63;;;;;;;;;;5033504;28;20046;-69
2021/04/25 12:38:01;;;;;;;9.05;5.65;;;;;;;;;;5032417;28;20134;-68
2021/04/25 12:40:30;;;;;;;12.45;7.00;;;;;;;;;;5043282;28;20049;-68
2021/04/25 12:43:12;;;;;;;11.38;6.25;;;;;;;;;;5049418;28;20069;-71
2021/04/25 12:45:40;;;;;;;12.57;6.97;;;;;;;;;;5037150;28;20132;-72
2021/04/25 12:48:24;;;;;;;13.23;6.45;;;;;;;;;;5033132;28;20095;-68
2021/04/25 12:51:11;;;;;;;13.57;6.97;;;;;;;;;;5046953;28;20076;-69
2021/04/25 12:53:45;;;;;;;12.07;6.05;;;;;;;;;;5053293;28;20045;-70
2021/04/25 12:56:19;;;;;;;8.07;5.38;;;;;;;;;;5052177;28;20053;-67
2021/04/25 12:59:04;;;;;;;13.38;5.82;;;;;;;;;;5047147;28;20044;-68
2021/04/25 13:01:33;;;;;;;11.15;5.15;;;;;;;;;;5048295;28;20053;-68
2021/04/25 13:04:01;;;;;;;10.88;5.25;;;;;;;;;;5041803;28;20054;-69
2021/04/25 13:06:29;;;;;;;10.02;5.53;;;;;;;;;;5045708;28;20049;-68
2021/04/25 13:08:57;;;;;;;6.32;4.65;;;;;;;;;;5034580;28;20092;-66
2021/04/25 13:11:37;;;;;;;8.45;5.07;;;;;;;;;;5043329;28;20578;-69
2021/04/25 13:14:09;;;;;;;8.70;4.50;;;;;;;;;;5052476;28;20091;-66
2021/04/25 13:16:38;;;;;;;8.73;4.68;;;;;;;;;;5043635;28;20136;-68
2021/04/25 13:19:05;;;;;;;11.25;5.32;;;;;;;;;;5039803;28;20041;-69
2021/04/25 13:21:40;;;;;;;7.38;4.85;;;;;;;;;;5053239;28;20484;-71
2021/04/25 13:24:08;;;;;;;6.18;4.32;;;;;;;;;;5052247;28;20045;-66
2021/04/25 13:26:36;;;;;;;10.48;4.50;;;;;;;;;;5052210;28;20049;-69
2021/04/25 13:29:06;;;;;;;8.13;4.85;;;;;;;;;;5052122;28;20099;-67
2021/04/25 13:31:34;;;;;;;9.18;5.30;;;;;;;;;;5047726;28;20095;-68
2021/04/25 13:34:02;;;;;;;12.15;5.10;;;;;;;;;;5044342;28;20042;-67
2021/04/25 13:36:29;;;;;;;9.90;5.22;;;;;;;;;;5039301;28;20455;-66
2021/04/25 13:38:56;;;;;;;7.47;5.07;;;;;;;;;;5047411;28;20128;-68
2021/04/25 13:41:25;;;;;;;9.50;5.20;;;;;;;;;;5051880;28;20545;-66
2021/04/25 13:43:52;;;;;;;7.32;4.78;;;;;;;;;;5051637;28;20127;-66
2021/04/25 13:46:20;;;;;;;9.45;5.90;;;;;;;;;;5049036;28;20045;-66
2021/04/25 13:48:48;;;;;;;8.98;4.65;;;;;;;;;;5043270;28;20398;-67
2021/04/25 13:51:17;;;;;;;6.68;4.32;;;;;;;;;;5052160;28;20057;-68
2021/04/25 13:53:44;;;;;;;8.02;4.70;;;;;;;;;;5052385;28;20478;-67
2021/04/25 13:56:11;;;;;;;8.85;4.70;;;;;;;;;;5052190;28;20110;-66
2021/04/25 13:58:39;;;;;;;8.40;3.95;;;;;;;;;;5048162;28;20060;-66
2021/04/25 14:01:06;;;;;;;6.38;3.92;;;;;;;;;;5048531;28;20505;-73
2021/04/25 14:03:34;;;;;;;5.78;4.03;;;;;;;;;;5044186;28;20107;-68
2021/04/25 14:06:03;;;;;;;7.65;4.10;;;;;;;;;;5051036;28;20140;-67
2021/04/25 14:08:31;;;;;;;9.73;3.83;;;;;;;;;;5050906;28;20450;-67
2021/04/25 14:10:59;;;;;;;6.30;4.10;;;;;;;;;;5050717;28;20053;-66
2021/04/25 14:13:28;;;;;;;7.03;3.67;;;;;;;;;;5050919;28;20040;-66
2021/04/25 14:15:55;;;;;;;8.05;4.93;;;;;;;;;;5051444;28;20311;-66
2021/04/25 14:18:23;;;;;;;8.95;4.57;;;;;;;;;;5050822;28;20049;-66
2021/04/25 14:20:51;;;;;;;6.95;4.00;;;;;;;;;;5050958;28;20051;-65
2021/04/25 14:23:19;;;;;;;7.20;3.85;;;;;;;;;;5050453;28;20053;-67
2021/04/25 14:25:47;;;;;;;9.18;4.20;;;;;;;;;;5051660;28;20439;-66
2021/04/25 14:28:15;;;;;;;7.07;4.38;;;;;;;;;;5050728;28;20480;-67
2021/04/25 14:30:43;;;;;;;5.50;3.33;;;;;;;;;;5051647;28;20063;-66
2021/04/25 14:33:11;;;;;;;7.22;4.00;;;;;;;;;;5041778;28;20045;-66
2021/04/25 14:35:48;;;;;;;7.20;3.40;;;;;;;;;;5037017;28;20107;-68
2021/04/25 14:38:16;;;;;;;13.48;4.57;;;;;;;;;;5044056;28;20045;-66